Time;durP1;ratioP1;P1;durP2;ratioP2;P2;SDS_P1;SDS_P2;PMS_P1;PMS_P2;Temp;Humidity;BMP_temperature;BMP_pressure;BME280_temperature;BME280_humidity;BME280_pressure;Samples;Min_cycle;Max_cycle;Signal;HPM_P1;HPM_P2
2021/09/14 00:00:16;;;;;;;;;;;;;;;15.18;71.17;98870.06;4900361;29;19919;-75
2021/09/14 00:02:42;;;;;;;;;;;;;;;15.17;71.17;98878.84;4900401;29;19923;-75
2021/09/14 00:05:10;;;;;;;;;;;;;;;15.16;71.07;98878.91;4872412;29;20695;-76
2021/09/14 00:07:36;;;;;;;;;;;;;;;15.12;71.26;98882.56;4883667;29;20018;-75
2021/09/14 00:10:01;;;;;;;;;;;;;;;15.09;71.07;98882.72;4886633;29;20021;-74
2021/09/14 00:12:27;;;;;;;;;;;;;;;15.05;71.15;98882.84;4869277;29;20368;-76
2021/09/14 00:14:52;;;;;;;;;;;;;;;15.00;71.12;98890.03;4887414;29;20579;-75
2021/09/14 00:17:18;;;;;;;;;;;;;;;14.99;70.88;98882.25;4909151;29;20006;-76
2021/09/14 00:19:44;;;;;;;;;;;;;;;14.98;71.00;98886.63;4895992;29;19979;-76
2021/09/14 00:22:09;;;;;;;;;;;;;;;14.98;70.76;98885.78;4901841;29;19975;-75
2021/09/14 00:24:35;;;;;;;;;;;;;;;14.98;70.91;98885.78;4899473;29;19951;-75
2021/09/14 00:27:06;;;;;;;;;;;;;;;14.98;70.47;98881.38;4871237;29;19959;-76
2021/09/14 00:29:32;;;;;;;;;;;;;;;14.97;70.54;98884.91;4883058;29;20403;-76
2021/09/14 00:31:57;;;;;;;;;;;;;;;14.96;70.40;98890.22;4886060;29;19923;-75
2021/09/14 00:34:23;;;;;;;;;;;;;;;14.95;70.28;98896.38;4868616;29;19919;-78
2021/09/14 00:36:48;;;;;;;;;;;;;;;14.91;70.11;98891.25;4868553;29;20655;-76
2021/09/14 00:39:14;;;;;;;;;;;;;;;14.87;70.07;98901.94;4885878;29;19926;-76
2021/09/14 00:41:39;;;;;;;;;;;;;;;14.80;69.95;98903.94;4885750;29;20118;-76
2021/09/14 00:44:05;;;;;;;;;;;;;;;14.76;69.64;98911.06;4883170;29;20295;-76
2021/09/14 00:46:31;;;;;;;;;;;;;;;14.75;69.93;98916.38;4886652;29;20386;-76
2021/09/14 00:48:56;;;;;;;;;;;;;;;14.75;69.82;98919.00;4886545;29;19919;-76
2021/09/14 00:51:23;;;;;;;;;;;;;;;14.79;69.57;98922.34;4868495;29;19925;-75
2021/09/14 00:53:49;;;;;;;;;;;;;;;14.82;69.48;98925.69;4903506;29;19919;-75
2021/09/14 00:56:15;;;;;;;;;;;;;;;14.83;69.38;98932.63;4890057;29;19926;-75
2021/09/14 00:58:41;;;;;;;;;;;;;;;14.80;69.43;98937.97;4871070;29;19939;-77
2021/09/14 01:01:06;;;;;;;;;;;;;;;14.78;69.19;98939.84;4879773;29;19923;-76
2021/09/14 01:03:32;;;;;;;;;;;;;;;14.73;69.14;98941.78;4891503;29;20010;-75
2021/09/14 01:05:57;;;;;;;;;;;;;;;14.66;69.16;98943.75;4892647;29;19923;-76
2021/09/14 01:08:24;;;;;;;;;;;;;;;14.57;68.88;98949.34;4889309;29;20112;-77
2021/09/14 01:10:50;;;;;;;;;;;;;;;14.45;68.88;98942.81;4905372;29;19923;-76
2021/09/14 01:13:15;;;;;;;;;;;;;;;14.34;68.75;98953.69;4906055;29;19919;-76
2021/09/14 01:15:41;;;;;;;;;;;;;;;14.25;68.86;98954.03;4903073;29;20584;-75
2021/09/14 01:18:06;;;;;;;;;;;;;;;14.14;68.90;98952.69;4902916;29;19923;-75
2021/09/14 01:20:32;;;;;;;;;;;;;;;14.09;68.70;98959.00;4890387;29;19918;-75
2021/09/14 01:22:57;;;;;;;;;;;;;;;14.04;68.53;98972.22;4872278;29;20406;-75
2021/09/14 01:25:24;;;;;;;;;;;;;;;13.98;68.33;98969.84;4873351;29;19920;-75
2021/09/14 01:27:59;;;;;;;;;;;;;;;13.91;68.16;98981.44;4888645;29;20312;-76
2021/09/14 01:30:30;;;;;;;;;;;;;;;13.80;67.73;98980.03;4885440;29;20406;-74
2021/09/14 01:32:56;;;;;;;;;;;;;;;13.73;67.41;98980.31;4889413;29;19951;-74
2021/09/14 01:35:27;;;;;;;;;;;;;;;13.65;67.19;98978.84;4871136;29;19966;-75
2021/09/14 01:37:58;;;;;;;;;;;;;;;13.57;67.09;98982.63;4890511;29;19975;-76
2021/09/14 01:40:27;;;;;;;;;;;;;;;13.48;66.90;98979.41;4903312;29;19956;-75
2021/09/14 01:42:58;;;;;;;;;;;;;;;13.39;66.78;98983.16;4874682;29;19923;-75
2021/09/14 01:45:24;;;;;;;;;;;;;;;13.30;66.60;98986.06;4885771;29;19923;-74
2021/09/14 01:47:50;;;;;;;;;;;;;;;13.23;66.28;98992.41;4858124;29;19919;-74
2021/09/14 01:50:17;;;;;;;;;;;;;;;13.14;66.19;99003.97;4888005;29;19919;-74
2021/09/14 01:52:44;;;;;;;;;;;;;;;13.07;66.02;99010.31;4885733;29;19925;-76
2021/09/14 01:55:10;;;;;;;;;;;;;;;13.00;65.79;99014.88;4900076;29;20057;-76
2021/09/14 01:57:39;;;;;;;;;;;;;;;12.92;65.77;99011.66;4884341;29;19950;-76
2021/09/14 02:00:10;;;;;;;;;;;;;;;12.84;65.53;99016.25;4866892;29;19923;-75
2021/09/14 02:05:17;;;;;;;;;;;;;;;12.66;65.42;99015.91;4897042;29;19922;-77
2021/09/14 02:24:21;;;;;;;;;;;;;;;12.09;64.61;99026.22;4889869;29;20026;-75
2021/09/14 02:43:26;;;;;;;;;;;;;;;11.54;64.35;99044.97;4888122;29;19923;-76
2021/09/14 02:58:37;;;;;;;;;;;;;;;11.42;63.90;99055.72;4883364;29;19969;-77
2021/09/14 02:59:46;;;;;;;;;;;;;;;11.44;64.00;99057.38;4884715;29;20394;-76
2021/09/14 03:02:11;;;;;;;;;;;;;;;11.48;63.75;99057.31;4889030;29;19919;-76
2021/09/14 03:04:38;;;;;;;;;;;;;;;11.51;63.37;99059.84;4871482;29;19979;-75
2021/09/14 03:07:03;;;;;;;;;;;;;;;11.55;63.66;99059.72;4886034;29;19958;-76
2021/09/14 03:09:38;;;;;;;;;;;;;;;11.60;63.23;99062.19;4889010;29;19978;-76
2021/09/14 03:12:06;;;;;;;;;;;;;;;11.66;63.15;99054.22;4886811;29;20797;-76
2021/09/14 03:14:33;;;;;;;;;;;;;;;11.72;63.29;99053.22;4886525;29;19933;-77
2021/09/14 03:16:59;;;;;;;;;;;;;;;11.77;63.04;99055.72;4874180;29;20290;-77
2021/09/14 03:19:25;;;;;;;;;;;;;;;11.81;62.89;99055.59;4871116;29;20051;-78
2021/09/14 03:21:51;;;;;;;;;;;;;;;11.86;62.60;99061.56;4885542;29;20017;-77
2021/09/14 03:24:17;;;;;;;;;;;;;;;11.93;62.45;99057.03;4873539;29;19951;-78
2021/09/14 03:26:44;;;;;;;;;;;;;;;12.00;62.13;99057.75;4872980;29;20295;-77
2021/09/14 03:29:10;;;;;;;;;;;;;;;12.06;62.04;99060.19;4871080;29;20050;-76
2021/09/14 03:31:42;;;;;;;;;;;;;;;12.12;61.96;99067.88;4877341;29;19954;-76
2021/09/14 03:34:08;;;;;;;;;;;;;;;12.20;61.87;99062.44;4886946;29;20477;-76
2021/09/14 03:36:35;;;;;;;;;;;;;;;12.26;61.44;99074.47;4902583;29;19920;-76
2021/09/14 03:39:01;;;;;;;;;;;;;;;12.27;61.48;99070.94;4890432;29;19929;-77
2021/09/14 03:41:26;;;;;;;;;;;;;;;12.26;60.94;99075.28;4904581;29;19922;-77
2021/09/14 03:43:52;;;;;;;;;;;;;;;12.28;61.04;99077.88;4905798;29;19922;-75
2021/09/14 03:46:19;;;;;;;;;;;;;;;12.29;60.75;99085.66;4888233;29;19962;-77
2021/09/14 03:48:44;;;;;;;;;;;;;;;12.32;60.86;99080.34;4890616;29;20299;-75
2021/09/14 03:51:10;;;;;;;;;;;;;;;12.36;60.67;99086.34;4888106;29;19930;-76
2021/09/14 03:53:36;;;;;;;;;;;;;;;12.41;60.30;99084.47;4890082;29;19919;-77
2021/09/14 03:56:01;;;;;;;;;;;;;;;12.46;60.24;99086.97;4876521;29;19950;-76
2021/09/14 03:58:28;;;;;;;;;;;;;;;12.46;60.02;99089.56;4883969;29;20066;-76
2021/09/14 04:00:54;;;;;;;;;;;;;;;12.49;59.93;99092.06;4877357;29;20014;-76
2021/09/14 04:08:53;;;;;;;;;;;;;;;12.62;59.60;99095.19;4889985;29;19943;-76
2021/09/14 04:11:24;;;;;;;;;;;;;;;12.65;59.33;99097.72;4892849;29;20024;-76
2021/09/14 04:13:53;;;;;;;;;;;;;;;12.69;59.28;99098.50;4893847;29;19918;-75
2021/09/14 04:16:19;;;;;;;;;;;;;;;12.70;59.14;99106.28;4924246;29;19966;-76
2021/09/14 04:18:45;;;;;;;;;;;;;;;12.71;59.09;99101.91;4907805;29;19923;-76
2021/09/14 04:21:11;;;;;;;;;;;;;;;12.73;58.87;99114.03;4911938;29;19962;-75
2021/09/14 04:23:36;;;;;;;;;;;;;;;12.75;59.10;99114.84;4909890;29;20015;-76
2021/09/14 04:26:02;;;;;;;;;;;;;;;12.76;58.83;99113.94;4910615;29;19952;-77
2021/09/14 04:28:30;;;;;;;;;;;;;;;12.80;58.92;99114.69;4899400;29;19911;-77
2021/09/14 04:30:56;;;;;;;;;;;;;;;12.83;58.72;99117.22;4931763;29;19939;-75
2021/09/14 04:33:22;;;;;;;;;;;;;;;12.90;58.66;99126.59;4900830;29;19932;-77
2021/09/14 04:35:48;;;;;;;;;;;;;;;12.96;58.67;99129.00;4890246;29;20026;-77
2021/09/14 04:38:13;;;;;;;;;;;;;;;13.01;58.52;99131.50;4879871;29;19918;-77
2021/09/14 04:40:39;;;;;;;;;;;;;;;13.09;58.27;99126.88;4891105;29;19929;-78
2021/09/14 04:43:08;;;;;;;;;;;;;;;13.21;58.27;99122.22;4897286;29;19983;-76
2021/09/14 04:45:33;;;;;;;;;;;;;;;13.29;58.07;99122.81;4894164;29;19923;-76
2021/09/14 04:47:59;;;;;;;;;;;;;;;13.33;57.96;99128.81;4874238;29;19930;-76
2021/09/14 04:50:25;;;;;;;;;;;;;;;13.39;57.77;99123.38;4876071;29;19923;-75
2021/09/14 04:52:59;;;;;;;;;;;;;;;13.50;57.67;99123.06;4887856;29;19920;-76
2021/09/14 04:55:28;;;;;;;;;;;;;;;13.75;57.70;99124.91;4878109;29;20455;-77
2021/09/14 04:57:56;;;;;;;;;;;;;;;14.82;57.31;99116.00;4886384;29;20013;-76
2021/09/14 05:00:22;;;;;;;;;;;;;;;15.84;56.43;99117.25;4901784;29;19923;-76
2021/09/14 05:02:49;;;;;;;;;;;;;;;17.12;55.38;99121.34;4875188;29;19946;-76
2021/09/14 05:05:16;;;;;;;;;;;;;;;18.38;53.30;99111.78;4890301;29;20613;-76
2021/09/14 05:07:44;;;;;;;;;;;;;;;18.60;51.37;99103.59;4887587;29;19918;-77
2021/09/14 05:10:10;;;;;;;;;;;;;;;18.42;50.39;99108.91;4886294;29;19923;-77
2021/09/14 05:12:41;;;;;;;;;;;;;;;18.21;50.26;99111.72;4902759;29;19934;-77
2021/09/14 05:15:10;;;;;;;;;;;;;;;17.88;50.21;99116.88;4901615;29;19926;-76
2021/09/14 05:17:51;;;;;;;;;;;;;;;17.45;50.89;99122.47;4880550;29;19930;-76
2021/09/14 05:20:31;;;;;;;;;;;;;;;17.31;50.86;99128.41;4886929;29;20487;-79
2021/09/14 05:23:10;;;;;;;;;;;;;;;17.28;51.58;99129.38;4887416;29;19922;-76
2021/09/14 05:25:36;;;;;;;;;;;;;;;17.44;51.39;99145.28;4902966;29;19925;-76
2021/09/14 05:28:07;;;;;;;;;;;;;;;17.71;50.84;99134.38;4885561;29;19923;-76
2021/09/14 05:30:33;;;;;;;;;;;;;;;18.08;50.88;99125.59;4903034;29;19920;-76
2021/09/14 05:32:58;;;;;;;;;;;;;;;18.84;50.26;99126.91;4886218;29;19982;-77
2021/09/14 05:35:26;;;;;;;;;;;;;;;19.35;49.00;99127.69;4903488;29;19919;-75
2021/09/14 05:37:57;;;;;;;;;;;;;;;19.57;48.18;99127.28;4874321;29;20182;-75
2021/09/14 05:40:23;;;;;;;;;;;;;;;19.61;47.90;99109.53;4887276;29;19918;-77
2021/09/14 05:42:48;;;;;;;;;;;;;;;19.88;47.68;99105.41;4886495;29;20375;-77
2021/09/14 05:45:16;;;;;;;;;;;;;;;20.48;46.84;99104.47;4902221;29;20447;-77
2021/09/14 05:47:42;;;;;;;;;;;;;;;21.53;46.15;99110.25;4870357;29;19922;-77
2021/09/14 05:50:08;;;;;;;;;;;;;;;22.19;44.48;99097.06;4886504;29;19926;-74
2021/09/14 05:52:36;;;;;;;;;;;;;;;22.45;43.55;99102.41;4885712;29;19926;-79
2021/09/14 05:55:05;;;;;;;;;;;;;;;22.50;43.12;99099.47;4886415;29;19947;-77
2021/09/14 05:57:30;;;;;;;;;;;;;;;22.21;42.98;99099.63;4870169;29;19922;-77
2021/09/14 05:59:59;;;;;;;;;;;;;;;22.01;43.67;99101.84;4884476;29;19926;-76
2021/09/14 06:02:24;;;;;;;;;;;;;;;21.82;43.70;99107.53;4874057;29;19958;-76
2021/09/14 06:04:59;;;;;;;;;;;;;;;21.50;43.81;99108.66;4870801;29;20430;-76
2021/09/14 06:07:46;;;;;;;;;;;;;;;21.24;44.63;99107.72;4873887;29;19923;-77
2021/09/14 06:10:29;;;;;;;;;;;;;;;21.32;44.25;99115.16;4885193;29;19919;-77
2021/09/14 06:13:19;;;;;;;;;;;;;;;21.89;43.99;99114.09;4882414;29;19920;-75
2021/09/14 06:15:49;;;;;;;;;;;;;;;21.84;43.50;99112.72;4870420;29;19923;-76
2021/09/14 06:18:21;;;;;;;;;;;;;;;21.72;43.26;99122.34;4881324;29;19999;-76
2021/09/14 06:20:47;;;;;;;;;;;;;;;21.39;42.68;99119.13;4871842;29;19922;-77
2021/09/14 06:23:18;;;;;;;;;;;;;;;21.11;43.66;99115.59;4901057;29;19923;-77
2021/09/14 06:25:55;;;;;;;;;;;;;;;21.12;43.97;99116.41;4903301;29;20393;-76
2021/09/14 06:28:23;;;;;;;;;;;;;;;21.10;43.50;99111.25;4900605;29;19923;-75
2021/09/14 06:30:49;;;;;;;;;;;;;;;21.11;43.96;99115.59;4884227;29;20010;-75
2021/09/14 06:33:23;;;;;;;;;;;;;;;20.96;43.39;99117.41;4884831;29;20682;-77
2021/09/14 06:35:53;;;;;;;;;;;;;;;21.62;42.82;99108.84;4871217;29;20005;-77
2021/09/14 06:38:31;;;;;;;;;;;;;;;22.30;42.28;99112.22;4886673;29;19931;-76
2021/09/14 06:40:56;;;;;;;;;;;;;;;22.57;41.55;99106.00;4906346;29;19926;-75
2021/09/14 06:43:26;;;;;;;;;;;;;;;22.48;41.29;99096.91;4904760;29;20760;-75
2021/09/14 06:46:11;;;;;;;;;;;;;;;22.61;40.91;99088.94;4901929;29;20693;-76
2021/09/14 06:48:44;;;;;;;;;;;;;;;23.31;41.03;99086.66;4887370;29;19926;-75
2021/09/14 06:51:10;;;;;;;;;;;;;;;24.47;39.65;99087.75;4884732;29;19923;-76
2021/09/14 06:53:36;;;;;;;;;;;;;;;25.33;38.20;99073.88;4870076;29;19927;-76
2021/09/14 06:56:01;;;;;;;;;;;;;;;25.59;36.53;99079.78;4887378;29;20517;-77
2021/09/14 06:58:35;;;;;;;;;;;;;;;25.87;37.01;99088.09;4898332;29;20603;-77
2021/09/14 07:01:00;;;;;;;;;;;;;;;26.62;35.24;99077.31;4899523;29;19927;-77
2021/09/14 07:03:26;;;;;;;;;;;;;;;26.89;35.06;99079.41;4872654;29;19934;-82
2021/09/14 07:05:52;;;;;;;;;;;;;;;28.03;34.44;99079.91;4856892;29;20410;-75
2021/09/14 07:08:18;;;;;;;;;;;;;;;27.61;33.40;99083.72;4877868;29;19923;-77
2021/09/14 07:10:43;;;;;;;;;;;;;;;26.41;34.15;99091.53;4876524;29;19926;-78
2021/09/14 07:13:09;;;;;;;;;;;;;;;24.68;35.67;99095.88;4904422;29;20367;-78
2021/09/14 07:15:35;;;;;;;;;;;;;;;23.47;37.39;99091.69;4890285;29;19923;-77
2021/09/14 07:18:01;;;;;;;;;;;;;;;22.70;38.33;99103.34;4878065;29;19930;-78
2021/09/14 07:20:26;;;;;;;;;;;;;;;22.68;38.62;99098.19;4888654;29;19926;-77
2021/09/14 07:22:53;;;;;;;;;;;;;;;23.54;38.44;99113.31;4907779;29;19926;-77
2021/09/14 07:25:29;;;;;;;;;;;;;;;24.88;36.89;99096.13;4892630;29;20434;-77
2021/09/14 07:28:24;;;;;;;;;;;;;;;26.28;34.50;99093.56;4908221;29;20009;-78
2021/09/14 07:31:11;;;;;;;;;;;;;;;26.50;32.83;99097.88;4888778;29;20349;-78
2021/09/14 07:33:58;;;;;;;;;;;;;;;25.93;33.99;99097.41;4863503;29;19919;-77
2021/09/14 07:36:25;;;;;;;;;;;;;;;25.65;33.71;99095.22;4872003;29;19926;-79
2021/09/14 07:39:05;;;;;;;;;;;;;;;26.31;33.62;99103.97;4868408;29;20053;-77
2021/09/14 07:41:36;;;;;;;;;;;;;;;26.14;32.68;99103.63;4874267;29;19923;-76
2021/09/14 07:44:10;;;;;;;;;;;;;;;26.64;33.02;99107.34;4861894;29;19927;-80
2021/09/14 07:46:36;;;;;;;;;;;;;;;27.69;30.89;99107.94;4899090;29;19926;-77
2021/09/14 07:49:02;;;;;;;;;;;;;;;27.62;31.26;99096.97;4894254;29;19923;-77
2021/09/14 07:51:33;;;;;;;;;;;;;;;26.59;31.55;99113.09;4872144;29;20021;-78
2021/09/14 07:53:59;;;;;;;;;;;;;;;25.63;31.86;99120.31;4876948;29;20350;-76
2021/09/14 07:56:24;;;;;;;;;;;;;;;24.92;32.37;99119.69;4878341;29;19938;-78
2021/09/14 07:58:50;;;;;;;;;;;;;;;24.16;32.90;99122.88;4904100;29;19926;-77
2021/09/14 08:01:15;;;;;;;;;;;;;;;23.82;33.11;99127.22;4894473;29;19923;-77
2021/09/14 08:03:42;;;;;;;;;;;;;;;24.25;33.36;99126.63;4883146;29;19973;-78
2021/09/14 08:06:07;;;;;;;;;;;;;;;25.17;32.84;99120.38;4879864;29;20062;-78
2021/09/14 08:08:33;;;;;;;;;;;;;;;25.67;30.80;99117.25;4894424;29;20359;-77
2021/09/14 08:10:59;;;;;;;;;;;;;;;26.07;31.53;99112.19;4894405;29;19944;-78
2021/09/14 08:13:25;;;;;;;;;;;;;;;27.30;29.96;99097.19;4910298;29;19919;-76
2021/09/14 08:15:54;;;;;;;;;;;;;;;27.85;28.62;99095.81;4910166;29;19982;-77
2021/09/14 08:18:20;;;;;;;;;;;;;;;27.43;28.38;99107.63;4880029;29;20375;-76
2021/09/14 08:20:50;;;;;;;;;;;;;;;26.72;29.33;99117.34;4876865;29;19919;-79
2021/09/14 08:23:18;;;;;;;;;;;;;;;26.15;30.02;99110.59;4881303;29;19923;-76
2021/09/14 08:25:46;;;;;;;;;;;;;;;26.11;29.16;99119.84;4898136;29;19929;-77
2021/09/14 08:28:21;;;;;;;;;;;;;;;25.30;29.74;99114.91;4895433;29;20021;-77
2021/09/14 08:31:00;;;;;;;;;;;;;;;24.23;30.40;99111.78;4898662;29;19919;-76
2021/09/14 08:33:29;;;;;;;;;;;;;;;23.59;31.20;99117.34;4876735;29;19927;-78
2021/09/14 08:36:06;;;;;;;;;;;;;;;23.25;31.25;99106.53;4907958;29;19930;-76
2021/09/14 08:38:33;;;;;;;;;;;;;;;22.97;30.70;99118.28;4878856;29;19919;-78
2021/09/14 08:40:59;;;;;;;;;;;;;;;22.76;31.03;99124.13;4898825;29;19919;-77
2021/09/14 08:43:27;;;;;;;;;;;;;;;22.58;31.12;99114.84;4894754;29;19930;-75
2021/09/14 08:45:53;;;;;;;;;;;;;;;22.32;30.43;99118.28;4913393;29;19923;-76
2021/09/14 08:48:19;;;;;;;;;;;;;;;22.17;30.79;99124.63;4905746;29;19926;-77
2021/09/14 08:50:45;;;;;;;;;;;;;;;22.08;30.24;99124.28;4901045;29;19926;-76
2021/09/14 08:53:14;;;;;;;;;;;;;;;22.06;30.61;99126.22;4884996;29;19926;-77
2021/09/14 08:55:44;;;;;;;;;;;;;;;21.74;30.17;99112.47;4896841;29;20473;-77
2021/09/14 08:58:13;;;;;;;;;;;;;;;21.40;30.69;99128.75;4882928;29;20352;-79
2021/09/14 09:00:42;;;;;;;;;;;;;;;20.98;31.15;99131.38;4881077;29;20014;-78
2021/09/14 09:03:08;;;;;;;;;;;;;;;20.40;31.60;99127.84;4892385;29;19931;-78
2021/09/14 09:05:34;;;;;;;;;;;;;;;19.96;31.49;99089.97;4894330;29;19926;-77
2021/09/14 09:08:02;;;;;;;;;;;;;;;19.99;31.71;99126.72;4897637;29;19954;-77
2021/09/14 09:10:28;;;;;;;;;;;;;;;19.94;32.03;99136.72;4881804;29;19974;-77
2021/09/14 09:12:54;;;;;;;;;;;;;;;19.89;31.99;99134.34;4878815;29;19941;-77
2021/09/14 09:15:28;;;;;;;;;;;;;;;19.51;32.19;99132.94;4879784;29;19927;-78
2021/09/14 09:18:06;;;;;;;;;;;;;;;19.09;32.53;99126.47;4893942;29;19942;-76
2021/09/14 09:20:33;;;;;;;;;;;;;;;18.99;32.95;99130.56;4905677;29;19923;-76
2021/09/14 09:23:07;;;;;;;;;;;;;;;18.87;32.86;99132.88;4908018;29;19930;-81
2021/09/14 09:25:33;;;;;;;;;;;;;;;18.94;32.62;99134.25;4910353;29;19919;-77
2021/09/14 09:28:18;;;;;;;;;;;;;;;18.91;32.39;99139.69;4893825;29;20017;-76
2021/09/14 09:30:53;;;;;;;;;;;;;;;18.80;32.45;99140.25;4898013;29;20431;-79
2021/09/14 09:33:23;;;;;;;;;;;;;;;18.88;32.37;99150.38;4884881;29;19918;-79
2021/09/14 09:35:49;;;;;;;;;;;;;;;18.94;32.01;99138.69;4907911;29;19919;-77
2021/09/14 09:38:15;;;;;;;;;;;;;;;19.02;32.15;99140.94;4893130;29;19939;-76
2021/09/14 09:40:43;;;;;;;;;;;;;;;19.25;32.03;99147.56;4880252;29;20396;-75
2021/09/14 09:43:09;;;;;;;;;;;;;;;19.12;31.73;99142.13;4891247;29;20005;-77
2021/09/14 09:45:45;;;;;;;;;;;;;;;19.03;31.99;99140.00;4876228;29;19919;-76
2021/09/14 09:48:11;;;;;;;;;;;;;;;18.74;32.17;99140.59;4908036;29;19969;-77
2021/09/14 09:50:38;;;;;;;;;;;;;;;18.41;33.08;99146.69;4879672;29;19919;-76
2021/09/14 09:53:04;;;;;;;;;;;;;;;18.45;33.27;99150.03;4892864;29;19923;-76
2021/09/14 09:55:32;;;;;;;;;;;;;;;18.48;33.15;99147.22;4905908;29;20418;-75
2021/09/14 09:57:58;;;;;;;;;;;;;;;18.41;33.35;99156.41;4892178;29;19918;-79
2021/09/14 10:00:23;;;;;;;;;;;;;;;18.67;33.47;99168.22;4907249;29;19930;-76
2021/09/14 10:02:58;;;;;;;;;;;;;;;19.09;33.15;99164.25;4908428;29;19919;-76
2021/09/14 10:05:27;;;;;;;;;;;;;;;19.17;32.73;99174.38;4907495;29;19923;-77
2021/09/14 10:07:53;;;;;;;;;;;;;;;19.06;32.64;99164.41;4909134;29;19919;-77
2021/09/14 10:10:19;;;;;;;;;;;;;;;18.84;32.89;99162.06;4908652;29;19922;-77
2021/09/14 10:12:44;;;;;;;;;;;;;;;18.81;32.85;99154.31;4875074;29;20384;-77
2021/09/14 10:15:12;;;;;;;;;;;;;;;18.72;32.79;99154.78;4891216;29;19927;-76
2021/09/14 10:17:48;;;;;;;;;;;;;;;18.45;33.16;99163.19;4891229;29;19919;-78
2021/09/14 10:20:14;;;;;;;;;;;;;;;18.25;33.18;99172.13;4867532;29;20395;-76
2021/09/14 10:22:40;;;;;;;;;;;;;;;17.98;33.54;99181.34;4895039;29;19919;-77
2021/09/14 10:25:18;;;;;;;;;;;;;;;17.89;33.43;99177.31;4873528;29;19950;-77
2021/09/14 10:27:44;;;;;;;;;;;;;;;17.79;33.56;99183.97;4896443;29;19923;-76
2021/09/14 10:30:13;;;;;;;;;;;;;;;17.71;33.79;99167.69;4910020;29;20529;-77
2021/09/14 10:32:40;;;;;;;;;;;;;;;17.74;33.84;99173.69;4894236;29;20375;-78
2021/09/14 10:35:06;;;;;;;;;;;;;;;17.84;33.35;99167.94;4890465;29;19927;-77
2021/09/14 10:37:32;;;;;;;;;;;;;;;17.68;33.39;99168.72;4893303;29;20027;-77
2021/09/14 10:40:09;;;;;;;;;;;;;;;17.55;33.45;99164.94;4908116;29;19974;-75
2021/09/14 10:42:37;;;;;;;;;;;;;;;17.51;33.68;99163.41;4878735;29;19958;-76
2021/09/14 10:45:23;;;;;;;;;;;;;;;17.46;33.45;99168.88;4889448;29;19926;-77
2021/09/14 10:47:48;;;;;;;;;;;;;;;17.49;33.58;99168.72;4895984;29;20454;-77
2021/09/14 10:50:24;;;;;;;;;;;;;;;17.52;33.63;99173.00;4895079;29;19919;-76
2021/09/14 10:52:56;;;;;;;;;;;;;;;17.66;33.54;99174.94;4905978;29;19919;-76
2021/09/14 10:55:21;;;;;;;;;;;;;;;17.76;33.35;99171.81;4907115;29;19938;-77
2021/09/14 10:57:48;;;;;;;;;;;;;;;17.90;33.24;99171.13;4919955;29;20351;-76
2021/09/14 11:00:15;;;;;;;;;;;;;;;18.00;33.16;99171.56;4907732;29;19977;-76
2021/09/14 11:02:41;;;;;;;;;;;;;;;18.05;33.25;99180.09;4886506;29;19923;-76
2021/09/14 11:05:08;;;;;;;;;;;;;;;18.02;33.03;99182.88;4867249;29;19982;-76
2021/09/14 11:07:33;;;;;;;;;;;;;;;17.55;33.23;99181.59;4890301;29;20096;-78
2021/09/14 11:10:00;;;;;;;;;;;;;;;17.53;33.74;99177.34;4904788;29;20466;-77
2021/09/14 11:12:27;;;;;;;;;;;;;;;17.63;33.35;99191.75;4886966;29;19926;-77
2021/09/14 11:14:53;;;;;;;;;;;;;;;17.53;33.46;99178.19;4886100;29;20042;-77
2021/09/14 11:17:27;;;;;;;;;;;;;;;17.40;33.44;99177.06;4872805;29;19942;-76
2021/09/14 11:19:54;;;;;;;;;;;;;;;17.33;33.77;99191.41;4900718;29;19919;-75
2021/09/14 11:22:33;;;;;;;;;;;;;;;17.36;33.89;99181.59;4884382;29;20302;-78
2021/09/14 11:24:58;;;;;;;;;;;;;;;17.45;33.55;99178.56;4904381;29;20034;-76
2021/09/14 11:27:24;;;;;;;;;;;;;;;17.36;33.69;99172.88;4876688;29;20057;-79
2021/09/14 11:29:50;;;;;;;;;;;;;;;17.02;33.52;99177.91;4906664;29;19919;-77
2021/09/14 11:32:16;;;;;;;;;;;;;;;16.68;34.11;99167.09;4906111;29;20030;-78
2021/09/14 11:34:41;;;;;;;;;;;;;;;16.38;34.17;99158.81;4875954;29;20012;-78
2021/09/14 11:37:07;;;;;;;;;;;;;;;16.06;34.50;99164.50;4885663;29;20502;-78
2021/09/14 11:39:37;;;;;;;;;;;;;;;15.87;34.66;99167.00;4887294;29;19944;-76
2021/09/14 11:42:03;;;;;;;;;;;;;;;15.98;34.92;99170.97;4860510;29;19934;-78
2021/09/14 11:44:28;;;;;;;;;;;;;;;15.84;34.65;99167.09;4875834;29;19927;-78
2021/09/14 11:46:54;;;;;;;;;;;;;;;15.78;35.15;99176.09;4886768;29;19923;-76
2021/09/14 11:49:29;;;;;;;;;;;;;;;15.82;34.82;99167.19;4875433;29;20295;-78
2021/09/14 11:51:59;;;;;;;;;;;;;;;15.88;34.88;99160.00;4886012;29;19919;-78
2021/09/14 11:54:31;;;;;;;;;;;;;;;15.96;34.72;99164.03;4886685;29;20261;-78
2021/09/14 11:56:57;;;;;;;;;;;;;;;16.20;34.92;99161.28;4904328;29;19923;-76
2021/09/14 11:59:23;;;;;;;;;;;;;;;16.37;34.24;99151.84;4889305;29;20655;-77
2021/09/14 12:01:48;;;;;;;;;;;;;;;16.41;34.56;99153.41;4903236;29;19930;-77
2021/09/14 12:04:18;;;;;;;;;;;;;;;16.44;34.40;99150.63;4902770;29;19959;-77
2021/09/14 12:06:54;;;;;;;;;;;;;;;16.47;34.63;99149.66;4902252;29;19923;-77
2021/09/14 12:09:20;;;;;;;;;;;;;;;16.50;34.71;99152.16;4901819;29;20060;-77
2021/09/14 12:11:46;;;;;;;;;;;;;;;16.56;34.83;99149.25;4889362;29;19922;-77
2021/09/14 12:14:19;;;;;;;;;;;;;;;16.51;34.80;99143.38;4887684;29;19975;-78
2021/09/14 12:16:45;;;;;;;;;;;;;;;16.45;35.04;99139.22;4875352;29;19926;-78
2021/09/14 12:19:12;;;;;;;;;;;;;;;16.41;35.07;99132.41;4904330;29;19927;-77
2021/09/14 12:21:38;;;;;;;;;;;;;;;16.34;35.37;99139.69;4890675;29;20264;-78
2021/09/14 12:24:04;;;;;;;;;;;;;;;16.18;35.36;99152.63;4889465;29;20014;-78
2021/09/14 12:26:37;;;;;;;;;;;;;;;15.83;35.71;99152.28;4891225;29;19919;-77
2021/09/14 12:29:03;;;;;;;;;;;;;;;15.66;36.41;99140.72;4904177;29;20061;-77
2021/09/14 12:31:29;;;;;;;;;;;;;;;15.57;36.04;99151.56;4891157;29;19919;-77
2021/09/14 12:33:55;;;;;;;;;;;;;;;15.54;36.43;99148.22;4887419;29;19935;-77
2021/09/14 12:36:20;;;;;;;;;;;;;;;15.53;36.10;99163.09;4885088;29;20038;-78
2021/09/14 12:38:46;;;;;;;;;;;;;;;15.64;36.34;99158.28;4868778;29;19919;-79
2021/09/14 12:41:14;;;;;;;;;;;;;;;15.65;36.06;99173.09;4901075;29;20342;-77
2021/09/14 12:43:40;;;;;;;;;;;;;;;15.45;36.06;99157.28;4904728;29;19923;-77
2021/09/14 12:46:06;;;;;;;;;;;;;;;15.24;36.25;99167.69;4877200;29;19997;-78
2021/09/14 12:48:31;;;;;;;;;;;;;;;15.06;36.26;99166.63;4871466;29;19923;-76
2021/09/14 12:50:57;;;;;;;;;;;;;;;14.93;36.77;99168.00;4906653;29;20361;-77
2021/09/14 12:53:23;;;;;;;;;;;;;;;14.99;36.87;99159.94;4907032;29;19923;-77
2021/09/14 12:55:48;;;;;;;;;;;;;;;15.03;36.68;99167.59;4889970;29;19919;-78
2021/09/14 12:58:14;;;;;;;;;;;;;;;15.11;36.87;99163.84;4891922;29;19918;-78
2021/09/14 13:00:40;;;;;;;;;;;;;;;15.17;36.47;99169.72;4909877;29;19919;-77
2021/09/14 13:03:05;;;;;;;;;;;;;;;15.27;36.62;99171.97;4931981;29;19920;-78
2021/09/14 13:05:31;;;;;;;;;;;;;;;15.42;36.94;99176.63;4916789;29;19938;-77
2021/09/14 13:07:57;;;;;;;;;;;;;;;15.41;36.83;99166.19;4878168;29;19946;-78
2021/09/14 13:10:23;;;;;;;;;;;;;;;15.47;36.55;99172.03;4908350;29;20068;-79
2021/09/14 13:12:51;;;;;;;;;;;;;;;15.57;36.54;99174.31;4893522;29;20022;-78
2021/09/14 13:18:01;;;;;;;;;;;;;;;15.51;36.97;99175.41;4888653;29;19930;-78
2021/09/14 13:20:27;;;;;;;;;;;;;;;15.47;36.94;99176.44;4888859;29;19930;-79
2021/09/14 13:22:53;;;;;;;;;;;;;;;15.31;36.99;99176.19;4892035;29;19923;-76
2021/09/14 13:25:19;;;;;;;;;;;;;;;15.19;37.20;99180.13;4889380;29;19923;-77
2021/09/14 13:27:45;;;;;;;;;;;;;;;15.21;37.18;99178.28;4873662;29;20375;-76
2021/09/14 13:30:11;;;;;;;;;;;;;;;15.21;37.35;99179.16;4902760;29;19919;-76
2021/09/14 13:32:36;;;;;;;;;;;;;;;15.25;37.32;99179.91;4902341;29;19923;-76
2021/09/14 13:35:02;;;;;;;;;;;;;;;15.27;37.44;99175.44;4893783;29;19976;-76
2021/09/14 13:37:27;;;;;;;;;;;;;;;15.37;37.18;99183.81;4891022;29;19977;-76
2021/09/14 13:39:53;;;;;;;;;;;;;;;15.41;37.23;99174.91;4881187;29;19919;-76
2021/09/14 13:42:23;;;;;;;;;;;;;;;15.30;37.21;99175.34;4892701;29;20237;-76
2021/09/14 13:47:20;;;;;;;;;;;;;;;15.11;37.27;99171.72;4907183;29;19927;-77
2021/09/14 13:49:49;;;;;;;;;;;;;;;14.99;37.24;99168.63;4881719;29;19930;-77